createdAt,value
2022-07-28T00:01:44.220Z,68.30
2022-07-28T00:04:14.170Z,67.44
2022-07-28T00:06:42.490Z,67.12
2022-07-28T00:09:10.534Z,67.97
2022-07-28T00:11:54.433Z,68.17
2022-07-28T00:14:23.126Z,67.90
2022-07-28T00:16:51.314Z,68.00
2022-07-28T00:19:21.219Z,67.66
2022-07-28T00:21:49.393Z,67.49
2022-07-28T00:24:17.716Z,67.53
2022-07-28T00:26:46.863Z,68.07
2022-07-28T00:29:15.137Z,68.87
2022-07-28T00:31:43.295Z,68.33
2022-07-28T00:34:12.261Z,68.21
2022-07-28T00:36:44.556Z,68.16
2022-07-28T00:39:12.839Z,68.29
2022-07-28T00:41:42.678Z,68.29
2022-07-28T00:44:11.347Z,68.89
2022-07-28T00:46:39.727Z,68.58
2022-07-28T00:49:08.147Z,67.38
2022-07-28T00:51:36.428Z,67.87
2022-07-28T00:54:05.861Z,67.68
2022-07-28T00:56:34.300Z,67.15
2022-07-28T00:59:02.775Z,68.74
2022-07-28T01:01:30.988Z,69.08
2022-07-28T01:04:01.921Z,69.58
2022-07-28T01:06:44.132Z,67.31
2022-07-28T01:09:20.831Z,68.59
2022-07-28T01:11:52.189Z,69.07
2022-07-28T01:14:24.897Z,68.27
2022-07-28T01:16:56.667Z,69.86
2022-07-28T01:19:39.290Z,69.48
2022-07-28T01:22:10.515Z,70.28
2022-07-28T01:24:50.833Z,71.21
2022-07-28T01:27:39.727Z,71.59
2022-07-28T01:30:09.346Z,72.09
2022-07-28T01:32:41.343Z,72.24
2022-07-28T01:35:17.545Z,72.27
2022-07-28T01:37:47.137Z,72.50
2022-07-28T01:40:17.713Z,72.72
2022-07-28T01:42:47.538Z,73.21
2022-07-28T01:45:19.074Z,72.76
2022-07-28T01:47:51.879Z,73.56
2022-07-28T01:50:23.719Z,73.46
2022-07-28T01:52:52.461Z,75.01
2022-07-28T01:55:22.020Z,76.70
2022-07-28T01:57:51.139Z,77.71
2022-07-28T02:00:19.386Z,76.92
2022-07-28T02:02:50.099Z,77.27
2022-07-28T02:05:21.906Z,77.96
2022-07-28T02:07:51.332Z,78.20
2022-07-28T02:10:19.730Z,77.95
2022-07-28T02:12:49.878Z,77.49
2022-07-28T02:15:18.778Z,77.90
2022-07-28T02:17:47.357Z,78.11
2022-07-28T02:20:19.935Z,78.86
2022-07-28T02:22:52.097Z,79.60
2022-07-28T02:25:20.538Z,79.54
2022-07-28T02:27:50.310Z,79.93
2022-07-28T02:30:19.338Z,80.31
2022-07-28T02:32:50.945Z,80.58
2022-07-28T02:35:25.586Z,81.04
2022-07-28T02:38:00.523Z,81.24
2022-07-28T02:40:32.394Z,82.37
2022-07-28T02:43:00.623Z,81.80
2022-07-28T02:45:29.501Z,83.18
2022-07-28T02:47:59.377Z,84.84
2022-07-28T02:50:29.706Z,84.20
2022-07-28T02:53:00.195Z,84.12
2022-07-28T02:55:29.042Z,83.43
2022-07-28T02:57:58.192Z,84.16
2022-07-28T03:00:26.741Z,83.83
2022-07-28T03:02:57.602Z,84.20
2022-07-28T03:05:25.990Z,84.20
2022-07-28T03:07:58.681Z,84.46
2022-07-28T03:10:33.707Z,84.61
2022-07-28T03:13:03.397Z,85.15
2022-07-28T03:15:32.028Z,85.41
2022-07-28T03:18:00.630Z,85.67
2022-07-28T03:20:28.710Z,86.44
2022-07-28T03:22:59.077Z,86.74
2022-07-28T03:25:28.546Z,85.95
2022-07-28T03:28:00.356Z,86.59
2022-07-28T03:30:30.439Z,87.34
2022-07-28T03:33:00.000Z,87.49
2022-07-28T03:35:28.677Z,87.50
2022-07-28T03:37:59.961Z,88.37
2022-07-28T03:40:29.899Z,88.53
2022-07-28T03:42:58.502Z,87.87
2022-07-28T03:45:27.887Z,88.69
2022-07-28T03:47:56.646Z,89.37
2022-07-28T03:50:27.948Z,91.33
2022-07-28T03:53:00.394Z,91.54
2022-07-28T03:55:28.468Z,90.97
2022-07-28T03:57:57.702Z,91.13
2022-07-28T04:00:26.684Z,93.64
2022-07-28T04:02:54.788Z,93.40
2022-07-28T04:05:22.855Z,94.09
2022-07-28T04:07:53.286Z,94.25
2022-07-28T04:10:22.912Z,92.87
2022-07-28T04:12:51.723Z,95.69
2022-07-28T04:15:20.607Z,95.15
2022-07-28T04:17:49.548Z,96.33
2022-07-28T04:20:18.376Z,97.58
2022-07-28T04:22:46.744Z,97.38
2022-07-28T04:25:15.597Z,97.39
2022-07-28T04:27:45.264Z,94.70
2022-07-28T04:30:17.084Z,93.78
2022-07-28T04:32:45.381Z,93.68
2022-07-28T04:35:17.321Z,93.57
2022-07-28T04:37:46.381Z,94.39
2022-07-28T04:40:14.636Z,93.54
2022-07-28T04:42:43.065Z,92.81
2022-07-28T04:45:13.586Z,92.34
2022-07-28T04:47:41.662Z,91.43
2022-07-28T04:50:11.016Z,90.48
2022-07-28T04:52:39.956Z,89.62
2022-07-28T04:55:08.702Z,89.92
2022-07-28T04:57:36.830Z,91.44
2022-07-28T05:00:11.887Z,91.75
2022-07-28T05:02:46.013Z,92.30
2022-07-28T05:05:14.176Z,91.63
2022-07-28T05:07:42.686Z,92.48
2022-07-28T05:10:11.734Z,91.49
2022-07-28T05:12:39.775Z,91.53
2022-07-28T05:15:10.592Z,90.56
2022-07-28T05:17:39.039Z,89.28
2022-07-28T05:20:09.377Z,92.31
2022-07-28T05:22:43.588Z,90.53
2022-07-28T05:25:18.662Z,91.86
2022-07-28T05:27:47.450Z,90.83
2022-07-28T05:30:15.554Z,89.95
2022-07-28T05:32:45.182Z,88.55
2022-07-28T05:35:14.675Z,92.69
2022-07-28T05:37:44.944Z,90.14
2022-07-28T05:40:14.716Z,89.47
2022-07-28T05:42:43.374Z,91.04
2022-07-28T05:45:15.718Z,77.49
2022-07-28T05:47:46.327Z,73.44
2022-07-28T05:50:15.963Z,71.06
2022-07-28T05:52:44.006Z,68.03
2022-07-28T05:55:15.211Z,59.70
2022-07-28T05:57:43.298Z,60.75
2022-07-28T06:00:12.805Z,56.23
2022-07-28T06:02:40.959Z,58.08
2022-07-28T06:05:09.457Z,56.66
2022-07-28T06:07:43.723Z,57.66
2022-07-28T06:10:13.296Z,53.17
2022-07-28T06:12:41.922Z,52.58
2022-07-28T06:15:13.426Z,50.12
2022-07-28T06:17:41.797Z,51.43
2022-07-28T06:20:10.577Z,54.05
2022-07-28T06:22:44.590Z,49.91
2022-07-28T06:25:14.020Z,52.80
2022-07-28T06:27:42.241Z,55.53
2022-07-28T06:30:10.638Z,52.73
2022-07-28T06:32:38.884Z,52.56
2022-07-28T06:35:07.864Z,55.30
2022-07-28T06:37:35.976Z,54.32
2022-07-28T06:40:07.225Z,57.82
2022-07-28T06:42:35.317Z,72.03
2022-07-28T06:45:03.389Z,71.30
2022-07-28T06:47:31.467Z,73.65
2022-07-28T06:49:59.631Z,74.08
2022-07-28T06:52:28.065Z,70.95
2022-07-28T06:55:00.364Z,72.49
2022-07-28T06:57:33.813Z,77.07
2022-07-28T07:00:04.121Z,72.90
2022-07-28T07:02:32.183Z,73.31
2022-07-28T07:05:00.219Z,70.70
2022-07-28T07:07:28.284Z,73.20
2022-07-28T07:09:56.347Z,74.06
2022-07-28T07:12:24.433Z,72.64
2022-07-28T07:14:54.065Z,70.75
2022-07-28T07:17:22.128Z,72.60
2022-07-28T07:19:50.238Z,73.60
2022-07-28T07:22:20.379Z,73.00
2022-07-28T07:24:50.475Z,72.04
2022-07-28T07:27:21.716Z,71.33
2022-07-28T07:29:51.903Z,72.77
2022-07-28T07:32:21.388Z,71.97
2022-07-28T07:34:49.609Z,70.97
2022-07-28T07:37:17.695Z,68.91
2022-07-28T07:39:45.789Z,71.24
2022-07-28T07:42:13.840Z,73.49
2022-07-28T07:44:41.900Z,71.63
2022-07-28T07:47:18.290Z,71.60
2022-07-28T07:49:47.738Z,72.20
2022-07-28T07:52:16.532Z,71.65
2022-07-28T07:54:45.410Z,70.94
2022-07-28T07:57:14.300Z,72.20
2022-07-28T07:59:42.332Z,71.53
2022-07-28T08:02:10.434Z,71.41
2022-07-28T08:04:39.206Z,71.26
2022-07-28T08:07:09.881Z,74.28
2022-07-28T08:09:37.982Z,73.72
2022-07-28T08:12:06.859Z,68.37
2022-07-28T08:14:35.012Z,70.29
2022-07-28T08:17:03.104Z,70.58
2022-07-28T08:19:31.272Z,69.00
2022-07-28T08:21:59.373Z,68.72
2022-07-28T08:24:32.802Z,68.23
2022-07-28T08:27:02.161Z,71.56
2022-07-28T08:29:30.254Z,67.79
2022-07-28T08:31:58.385Z,67.12
2022-07-28T08:34:32.690Z,67.67
2022-07-28T08:37:02.250Z,67.93
2022-07-28T08:39:34.790Z,68.24
2022-07-28T08:42:05.497Z,68.25
2022-07-28T08:44:37.111Z,67.60
2022-07-28T08:47:05.734Z,66.20
2022-07-28T08:49:34.324Z,66.91
2022-07-28T08:52:11.004Z,66.98
2022-07-28T08:54:42.113Z,67.03
2022-07-28T08:57:11.166Z,67.75
2022-07-28T08:59:39.876Z,65.87
2022-07-28T09:02:12.256Z,66.39
2022-07-28T09:04:41.157Z,67.95
2022-07-28T09:07:09.456Z,65.65
2022-07-28T09:09:38.399Z,65.87
2022-07-28T09:12:08.157Z,64.41
2022-07-28T09:14:36.416Z,64.80
2022-07-28T09:17:05.484Z,62.70
2022-07-28T09:19:35.779Z,63.77
2022-07-28T09:22:04.212Z,62.05
2022-07-28T09:24:36.453Z,62.86
2022-07-28T09:27:06.707Z,62.71
2022-07-28T09:29:40.612Z,62.94
2022-07-28T09:32:11.194Z,61.71
2022-07-28T09:34:42.917Z,64.11
2022-07-28T09:37:24.829Z,62.73
2022-07-28T09:39:57.945Z,61.69
2022-07-28T09:42:26.387Z,61.07
2022-07-28T09:45:22.424Z,61.84
2022-07-28T09:48:08.865Z,61.04
2022-07-28T09:50:37.223Z,60.83
2022-07-28T09:53:20.159Z,60.51
2022-07-28T09:55:55.217Z,60.29
2022-07-28T09:58:23.329Z,59.15
2022-07-28T10:01:09.796Z,59.04
2022-07-28T10:03:40.558Z,59.14
2022-07-28T10:06:09.362Z,57.38
2022-07-28T10:08:41.990Z,57.31
2022-07-28T10:11:10.808Z,54.96
2022-07-28T10:13:52.201Z,56.07
2022-07-28T10:16:22.780Z,54.01
2022-07-28T10:18:50.966Z,54.20
2022-07-28T10:21:20.466Z,52.18
2022-07-28T10:23:49.836Z,52.58
2022-07-28T10:26:18.254Z,51.58
2022-07-28T10:28:48.767Z,51.65
2022-07-28T10:31:21.077Z,50.05
2022-07-28T10:33:52.128Z,50.12
2022-07-28T10:36:23.964Z,50.66
2022-07-28T10:38:55.169Z,51.89
2022-07-28T10:41:30.084Z,51.47
2022-07-28T10:43:58.393Z,51.24
2022-07-28T10:46:27.093Z,52.07
2022-07-28T10:48:56.776Z,52.56
2022-07-28T10:51:28.442Z,52.32
2022-07-28T10:54:02.265Z,52.16
2022-07-28T10:56:36.283Z,52.76
2022-07-28T10:59:07.563Z,50.55
2022-07-28T11:01:51.626Z,49.94
2022-07-28T11:04:38.668Z,52.77
2022-07-28T11:07:11.789Z,49.63
2022-07-28T11:09:40.091Z,49.46
2022-07-28T11:12:09.629Z,49.36
2022-07-28T11:14:39.458Z,48.43
2022-07-28T11:17:13.716Z,49.36
2022-07-28T11:20:25.007Z,48.58
2022-07-28T11:22:41.440Z,47.73
2022-07-28T11:25:22.744Z,47.93
2022-07-28T11:28:04.498Z,48.12
2022-07-28T11:30:52.348Z,48.34
2022-07-28T11:33:21.283Z,46.32
2022-07-28T11:35:59.512Z,46.27
2022-07-28T11:38:29.278Z,46.48
2022-07-28T11:40:57.722Z,46.91
2022-07-28T11:43:39.029Z,46.48
2022-07-28T11:46:23.580Z,47.11
2022-07-28T11:49:19.637Z,47.97
2022-07-28T11:52:02.659Z,46.29
2022-07-28T11:54:32.946Z,45.13
2022-07-28T11:57:02.385Z,46.32
2022-07-28T11:59:40.939Z,45.63
2022-07-28T12:02:09.161Z,45.60
2022-07-28T12:04:38.197Z,44.84
2022-07-28T12:07:07.056Z,43.69
2022-07-28T12:09:42.498Z,45.18
2022-07-28T12:12:10.938Z,45.34
2022-07-28T12:14:39.668Z,44.74
2022-07-28T12:17:10.556Z,45.43
2022-07-28T12:19:40.606Z,44.28
2022-07-28T12:22:15.645Z,44.39
2022-07-28T12:24:45.928Z,43.42
2022-07-28T12:27:16.653Z,42.03
2022-07-28T12:29:47.916Z,42.79
2022-07-28T12:32:18.612Z,41.39
2022-07-28T12:34:46.952Z,42.94
2022-07-28T12:37:15.845Z,42.51
2022-07-28T12:39:51.525Z,43.42
2022-07-28T12:42:19.845Z,42.59
2022-07-28T12:44:48.706Z,41.95
2022-07-28T12:47:17.692Z,41.68
2022-07-28T12:49:45.937Z,42.15
2022-07-28T12:52:17.888Z,42.67
2022-07-28T12:54:52.943Z,40.46
2022-07-28T12:57:43.244Z,40.25
2022-07-28T13:00:18.902Z,41.00
2022-07-28T13:02:47.177Z,40.44
2022-07-28T13:05:54.154Z,39.42
2022-07-28T13:08:22.805Z,39.53
2022-07-28T13:10:57.087Z,40.00
2022-07-28T13:13:25.840Z,41.28
2022-07-28T13:16:12.438Z,39.47
2022-07-28T13:18:40.791Z,39.90
2022-07-28T13:21:09.039Z,40.70
2022-07-28T13:23:37.125Z,41.63
2022-07-28T13:26:07.206Z,38.82
2022-07-28T13:28:39.478Z,39.04
2022-07-28T13:31:07.685Z,38.96
2022-07-28T13:33:35.846Z,38.92
2022-07-28T13:36:03.957Z,39.06
2022-07-28T13:38:33.451Z,39.65
2022-07-28T13:41:01.568Z,39.87
2022-07-28T13:43:35.795Z,40.47
2022-07-28T13:46:06.735Z,40.14
2022-07-28T13:48:40.220Z,40.74
2022-07-28T13:51:28.994Z,40.75
2022-07-28T13:53:57.082Z,41.15
2022-07-28T13:56:41.259Z,41.06
2022-07-28T13:59:10.852Z,41.82
2022-07-28T14:01:41.494Z,39.73
2022-07-28T14:04:14.821Z,39.82
2022-07-28T14:06:45.798Z,40.14
2022-07-28T14:09:18.826Z,39.40
2022-07-28T14:11:53.730Z,37.59
2022-07-28T14:14:24.785Z,38.12
2022-07-28T14:16:54.398Z,37.79
2022-07-28T14:19:39.628Z,37.78
2022-07-28T14:22:13.190Z,37.64
2022-07-28T14:24:44.114Z,37.82
2022-07-28T14:27:12.192Z,38.32
2022-07-28T14:29:43.220Z,38.22
2022-07-28T14:32:11.276Z,38.53
2022-07-28T14:34:40.491Z,38.63
2022-07-28T14:37:09.519Z,39.01
2022-07-28T14:39:38.054Z,38.24
2022-07-28T14:42:06.266Z,38.50
2022-07-28T14:44:37.409Z,38.69
2022-07-28T14:47:07.608Z,39.36
2022-07-28T14:49:36.058Z,38.53
2022-07-28T14:52:04.382Z,38.35
2022-07-28T14:54:34.064Z,38.05
2022-07-28T14:57:02.391Z,37.36
2022-07-28T14:59:30.483Z,37.33
2022-07-28T15:02:01.097Z,36.14
2022-07-28T15:04:32.730Z,36.92
2022-07-28T15:07:00.817Z,36.24
2022-07-28T15:09:28.872Z,36.37
2022-07-28T15:11:59.241Z,35.44
2022-07-28T15:14:27.337Z,34.84
2022-07-28T15:16:55.383Z,34.41
2022-07-28T15:19:23.494Z,34.77
2022-07-28T15:21:52.909Z,35.53
2022-07-28T15:24:22.242Z,35.36
2022-07-28T15:26:50.274Z,35.81
2022-07-28T15:29:19.694Z,36.06
2022-07-28T15:31:49.653Z,35.98
2022-07-28T15:34:18.227Z,35.84
2022-07-28T15:36:46.561Z,35.80
2022-07-28T15:39:15.960Z,34.94
2022-07-28T15:41:44.657Z,35.83
2022-07-28T15:44:16.334Z,35.19
2022-07-28T15:46:46.516Z,35.34
2022-07-28T15:49:15.198Z,35.17
2022-07-28T15:51:43.295Z,35.21
2022-07-28T15:54:11.369Z,35.39
2022-07-28T15:56:41.952Z,35.33
2022-07-28T15:59:10.061Z,34.50
2022-07-28T16:01:43.381Z,34.39
2022-07-28T16:04:13.894Z,34.82
2022-07-28T16:07:14.719Z,35.70
2022-07-28T16:09:45.748Z,35.96
2022-07-28T16:12:16.173Z,35.75
2022-07-28T16:14:44.267Z,35.41
2022-07-28T16:17:14.898Z,35.37
2022-07-28T16:19:49.533Z,35.65
2022-07-28T16:22:18.798Z,35.40
2022-07-28T16:24:50.628Z,34.99
2022-07-28T16:27:20.108Z,35.91
2022-07-28T16:29:49.366Z,37.52
2022-07-28T16:32:17.560Z,36.05
2022-07-28T16:34:45.872Z,36.14
2022-07-28T16:37:19.236Z,35.61
2022-07-28T16:39:48.501Z,35.34
2022-07-28T16:42:16.683Z,35.45
2022-07-28T16:44:47.291Z,35.53
2022-07-28T16:47:15.483Z,35.10
2022-07-28T16:49:45.923Z,35.11
2022-07-28T16:52:14.769Z,34.58
2022-07-28T16:54:46.123Z,34.39
2022-07-28T16:57:17.951Z,35.65
2022-07-28T16:59:48.709Z,35.04
2022-07-28T17:02:20.332Z,35.20
2022-07-28T17:04:48.664Z,35.22
2022-07-28T17:07:16.807Z,35.34
2022-07-28T17:09:45.120Z,35.46
2022-07-28T17:12:15.556Z,34.52
2022-07-28T17:14:43.618Z,34.88
2022-07-28T17:17:13.261Z,34.76
2022-07-28T17:19:46.661Z,36.24
2022-07-28T17:22:15.312Z,36.01
2022-07-28T17:24:43.474Z,35.86
2022-07-28T17:29:59.633Z,36.87
2022-07-28T17:32:29.216Z,36.95
2022-07-28T17:34:57.301Z,37.01
2022-07-28T17:37:27.217Z,37.68
2022-07-28T17:39:58.506Z,37.90
2022-07-28T17:42:26.604Z,38.04
2022-07-28T17:44:59.350Z,37.99
2022-07-28T17:47:35.942Z,38.10
2022-07-28T17:50:07.169Z,38.52
2022-07-28T17:52:35.591Z,38.11
2022-07-28T17:55:23.358Z,38.08
2022-07-28T17:57:54.677Z,38.31
2022-07-28T18:00:22.916Z,38.24
2022-07-28T18:02:52.370Z,38.60
2022-07-28T18:05:22.822Z,38.53
2022-07-28T18:07:53.713Z,38.78
2022-07-28T18:10:25.079Z,39.08
2022-07-28T18:12:55.270Z,39.29
2022-07-28T18:15:23.770Z,39.89
2022-07-28T18:17:56.122Z,40.21
2022-07-28T18:20:24.796Z,40.42
2022-07-28T18:22:53.234Z,40.59
2022-07-28T18:25:21.348Z,40.66
2022-07-28T18:27:50.576Z,40.41
2022-07-28T18:30:19.666Z,41.02
2022-07-28T18:32:47.966Z,41.38
2022-07-28T18:35:17.866Z,41.37
2022-07-28T18:37:46.461Z,41.44
2022-07-28T18:40:15.241Z,41.62
2022-07-28T18:42:43.460Z,41.53
2022-07-28T18:45:14.343Z,42.05
2022-07-28T18:47:45.566Z,42.39
2022-07-28T18:50:30.397Z,42.56
2022-07-28T18:52:59.927Z,42.84
2022-07-28T18:55:28.154Z,43.20
2022-07-28T18:57:56.394Z,43.41
2022-07-28T19:00:24.510Z,43.77
2022-07-28T19:02:52.601Z,44.10
2022-07-28T19:05:22.083Z,44.68
2022-07-28T19:07:50.162Z,44.22
2022-07-28T19:10:18.257Z,44.83
2022-07-28T19:12:48.101Z,44.64
2022-07-28T19:15:16.267Z,44.85
2022-07-28T19:17:44.331Z,44.93
2022-07-28T19:20:12.736Z,45.71
2022-07-28T19:22:42.206Z,46.12
2022-07-28T19:25:10.810Z,46.50
2022-07-28T19:27:39.464Z,47.39
2022-07-28T19:30:08.827Z,47.86
2022-07-28T19:32:38.611Z,47.92
2022-07-28T19:35:07.299Z,48.60
2022-07-28T19:37:36.328Z,48.74
2022-07-28T19:40:07.186Z,48.98
2022-07-28T19:42:37.546Z,48.75
2022-07-28T19:45:06.146Z,49.54
2022-07-28T19:47:36.966Z,50.02
2022-07-28T19:50:05.966Z,50.20
2022-07-28T19:52:37.466Z,50.58
2022-07-28T19:55:10.767Z,49.82
2022-07-28T19:57:42.227Z,49.12
2022-07-28T20:00:10.950Z,49.38
2022-07-28T20:02:41.746Z,49.96
2022-07-28T20:05:10.738Z,49.77
2022-07-28T20:07:38.893Z,50.02
2022-07-28T20:10:09.340Z,49.67
2022-07-28T20:12:37.443Z,49.91
2022-07-28T20:15:08.939Z,49.97
2022-07-28T20:17:39.648Z,50.40
2022-07-28T20:20:08.694Z,50.33
2022-07-28T20:22:39.087Z,50.07
2022-07-28T20:25:10.065Z,50.96
2022-07-28T20:27:40.397Z,52.42
2022-07-28T20:30:09.693Z,54.12
2022-07-28T20:32:37.940Z,51.67
2022-07-28T20:35:07.006Z,54.06
2022-07-28T20:37:36.779Z,54.41
2022-07-28T20:40:05.853Z,53.18
2022-07-28T20:42:37.889Z,52.07
2022-07-28T20:45:06.360Z,53.31
2022-07-28T20:47:34.719Z,70.39
2022-07-28T20:50:05.133Z,100.00
2022-07-28T20:52:33.983Z,100.00
2022-07-28T20:55:02.028Z,100.00
2022-07-28T20:57:30.147Z,100.00
2022-07-28T20:59:59.613Z,100.00
2022-07-28T21:02:27.820Z,100.00
2022-07-28T21:04:55.938Z,100.00
2022-07-28T21:08:00.682Z,100.00
2022-07-28T21:10:12.703Z,100.00
2022-07-28T21:12:41.015Z,100.00
2022-07-28T21:15:10.804Z,100.00
2022-07-28T21:17:38.901Z,100.00
2022-07-28T21:20:07.312Z,100.00
2022-07-28T21:22:35.368Z,100.00
2022-07-28T21:25:03.445Z,100.00
2022-07-28T21:27:52.671Z,100.00
2022-07-28T21:30:27.775Z,100.00
2022-07-28T21:32:56.555Z,100.00
2022-07-28T21:35:24.852Z,100.00
2022-07-28T21:37:53.347Z,100.00
2022-07-28T21:40:24.075Z,100.00
2022-07-28T21:42:52.129Z,100.00
2022-07-28T21:45:20.350Z,100.00
2022-07-28T21:47:49.732Z,100.00
2022-07-28T21:50:17.839Z,100.00
2022-07-28T21:52:45.913Z,100.00
2022-07-28T21:55:14.213Z,100.00
2022-07-28T21:57:42.624Z,100.00
2022-07-28T22:02:38.325Z,100.00
2022-07-28T22:05:09.514Z,100.00
2022-07-28T22:07:37.636Z,100.00
2022-07-28T22:10:06.207Z,100.00
2022-07-28T22:12:36.620Z,100.00
2022-07-28T22:15:05.219Z,100.00
2022-07-28T22:17:33.286Z,100.00
2022-07-28T22:20:02.758Z,100.00
2022-07-28T22:22:32.962Z,100.00
2022-07-28T22:25:01.054Z,100.00
2022-07-28T22:27:29.136Z,100.00
2022-07-28T22:29:57.174Z,100.00
2022-07-28T22:32:28.839Z,100.00
2022-07-28T22:34:57.905Z,100.00
2022-07-28T22:37:27.311Z,100.00
2022-07-28T22:39:55.431Z,100.00
2022-07-28T22:42:23.487Z,100.00
2022-07-28T22:44:51.562Z,100.00
2022-07-28T22:47:19.582Z,100.00
2022-07-28T22:49:47.650Z,100.00
2022-07-28T22:52:15.693Z,100.00
2022-07-28T22:54:45.015Z,100.00
2022-07-28T22:57:13.029Z,100.00
2022-07-28T22:59:42.023Z,100.00
2022-07-28T23:02:15.062Z,100.00
2022-07-28T23:04:44.936Z,100.00
2022-07-28T23:07:16.692Z,100.00
2022-07-28T23:09:47.740Z,100.00
2022-07-28T23:12:15.770Z,100.00
2022-07-28T23:14:43.817Z,100.00
2022-07-28T23:17:11.877Z,100.00
2022-07-28T23:19:39.962Z,100.00
2022-07-28T23:22:07.990Z,100.00
2022-07-28T23:24:36.055Z,100.00
2022-07-28T23:27:05.900Z,100.00
2022-07-28T23:29:36.122Z,100.00
2022-07-28T23:32:04.227Z,100.00
2022-07-28T23:34:32.305Z,100.00
2022-07-28T23:37:00.379Z,100.00
2022-07-28T23:39:30.823Z,100.00
2022-07-28T23:41:58.868Z,100.00
2022-07-28T23:44:28.255Z,100.00
2022-07-28T23:46:56.807Z,100.00
2022-07-28T23:49:27.101Z,100.00
2022-07-28T23:51:55.192Z,100.00
2022-07-28T23:54:23.237Z,100.00
2022-07-28T23:56:52.009Z,100.00
2022-07-28T23:59:20.040Z,100.00
